Time;durP1;ratioP1;P1;durP2;ratioP2;P2;SDS_P1;SDS_P2;PMS_P1;PMS_P2;Temp;Humidity;BMP_temperature;BMP_pressure;BME280_temperature;BME280_humidity;BME280_pressure;Samples;Min_cycle;Max_cycle;Signal;HPM_P1;HPM_P2
2021/11/21 00:00:17;;;;;;;9.50;2.75;;;;;;;6.20;79.17;101801.31;5022904;28;20035;-81
2021/11/21 00:02:44;;;;;;;10.00;2.97;;;;;;;6.18;79.32;101798.88;5014234;28;20037;-81
2021/11/21 00:05:12;;;;;;;10.43;2.17;;;;;;;6.19;79.43;101800.53;5012377;28;20136;-81
2021/11/21 00:07:39;;;;;;;9.90;2.60;;;;;;;6.17;79.38;101802.72;5010231;28;20046;-81
2021/11/21 00:10:07;;;;;;;11.63;2.45;;;;;;;6.15;79.36;101802.19;5009684;28;20042;-85
2021/11/21 00:12:33;;;;;;;4.93;1.70;;;;;;;6.16;79.38;101795.59;5019624;28;20091;-81
2021/11/21 00:15:01;;;;;;;11.18;2.55;;;;;;;6.17;79.29;101807.44;5022391;28;20132;-81
2021/11/21 00:17:28;;;;;;;8.68;2.20;;;;;;;6.18;78.95;101796.13;5028032;28;20099;-81
2021/11/21 00:19:55;;;;;;;8.57;1.95;;;;;;;6.17;79.09;101810.97;5015831;28;20433;-81
2021/11/21 00:22:24;;;;;;;5.82;2.22;;;;;;;6.15;79.05;101810.44;5018785;28;20041;-80
2021/11/21 00:24:52;;;;;;;8.65;2.30;;;;;;;6.14;79.00;101808.81;5018271;28;20053;-80
2021/11/21 00:27:19;;;;;;;4.40;2.33;;;;;;;6.10;79.01;101807.75;5005717;28;20096;-80
2021/11/21 00:29:45;;;;;;;7.53;2.50;;;;;;;6.06;78.91;101814.94;5024773;28;20046;-80
2021/11/21 00:32:12;;;;;;;8.82;1.88;;;;;;;6.03;78.91;101796.28;5024316;28;20120;-80
2021/11/21 00:34:41;;;;;;;6.53;1.50;;;;;;;6.01;79.05;101818.53;5024988;28;20374;-80
2021/11/21 00:37:10;;;;;;;7.45;1.98;;;;;;;6.00;79.20;101814.16;5015328;28;20099;-80
2021/11/21 00:39:37;;;;;;;8.57;1.98;;;;;;;6.01;79.09;101821.28;5022833;28;20042;-80
2021/11/21 00:42:04;;;;;;;5.85;2.15;;;;;;;6.01;79.29;101820.50;5020336;28;20045;-81
2021/11/21 00:44:31;;;;;;;10.68;2.38;;;;;;;5.98;79.30;101821.84;5006448;28;20053;-79
2021/11/21 00:46:58;;;;;;;11.07;1.90;;;;;;;5.98;79.13;101826.56;5021830;28;20489;-81
2021/11/21 00:49:25;;;;;;;15.05;4.03;;;;;;;6.01;78.89;101820.50;5020050;28;20096;-81
2021/11/21 00:51:51;;;;;;;7.65;2.22;;;;;;;5.99;78.87;101817.19;5022147;28;20121;-80
2021/11/21 00:54:57;;;;;;;10.93;2.30;;;;;;;5.96;78.80;101815.00;5018509;28;20045;-80
2021/11/21 00:57:13;;;;;;;9.75;1.95;;;;;;;5.96;78.80;101817.75;5017062;28;20045;-80
2021/11/21 00:59:40;;;;;;;8.75;2.20;;;;;;;5.93;79.05;101829.34;5027085;28;20085;-80
2021/11/21 01:02:09;;;;;;;5.97;1.95;;;;;;;5.92;78.92;101830.47;5016708;28;20556;-80
2021/11/21 01:04:41;;;;;;;14.18;2.25;;;;;;;5.91;78.78;101823.31;5016631;28;20033;-80
2021/11/21 01:07:12;;;;;;;11.57;2.03;;;;;;;5.89;78.84;101828.28;5018425;28;20033;-80
2021/11/21 01:09:40;;;;;;;10.57;2.10;;;;;;;5.89;79.12;101814.53;5011572;28;20041;-80
2021/11/21 01:12:08;;;;;;;8.55;1.58;;;;;;;5.87;78.64;101806.59;5020562;28;20041;-80
2021/11/21 01:14:37;;;;;;;5.18;1.48;;;;;;;5.86;78.67;101809.59;5015820;28;20042;-81
2021/11/21 01:17:06;;;;;;;11.30;2.55;;;;;;;5.86;78.96;101817.84;5018356;28;20065;-80
2021/11/21 01:19:34;;;;;;;15.38;1.98;;;;;;;5.82;79.03;101822.28;5012265;28;20092;-80
2021/11/21 01:22:03;;;;;;;5.53;2.03;;;;;;;5.79;78.88;101814.59;5011697;28;20523;-80
2021/11/21 01:24:31;;;;;;;4.90;1.77;;;;;;;5.79;78.98;101815.41;5003707;28;20450;-80
2021/11/21 01:26:58;;;;;;;7.90;1.95;;;;;;;5.79;78.99;101811.84;5009885;28;20046;-80
2021/11/21 01:29:25;;;;;;;12.15;2.42;;;;;;;5.76;79.17;101813.25;5016216;28;20069;-80
2021/11/21 01:31:51;;;;;;;7.82;1.80;;;;;;;5.75;79.15;101805.28;5013389;28;20088;-80
2021/11/21 01:34:18;;;;;;;13.35;1.80;;;;;;;5.71;79.25;101812.47;5023222;28;20049;-81
2021/11/21 01:36:45;;;;;;;10.82;2.78;;;;;;;5.68;79.29;101811.09;5017287;28;20076;-81
2021/11/21 01:39:13;;;;;;;14.50;2.38;;;;;;;5.68;79.36;101811.09;5019514;28;20076;-80
2021/11/21 01:41:40;;;;;;;9.73;2.13;;;;;;;5.68;79.08;101813.03;5009909;28;20038;-80
2021/11/21 01:44:10;;;;;;;6.72;1.65;;;;;;;5.66;79.13;101816.06;5021449;28;20062;-80
2021/11/21 01:46:39;;;;;;;10.15;2.47;;;;;;;5.63;79.43;101815.81;5008997;28;20048;-80
2021/11/21 01:49:07;;;;;;;13.40;2.40;;;;;;;5.64;79.32;101814.72;5007811;28;20385;-80
2021/11/21 01:51:35;;;;;;;7.15;2.92;;;;;;;5.63;79.36;101813.06;5013982;28;20045;-80
2021/11/21 01:54:04;;;;;;;9.98;2.08;;;;;;;5.60;79.14;101802.66;5016499;28;20466;-80
2021/11/21 01:56:31;;;;;;;9.95;2.03;;;;;;;5.54;79.31;101804.59;5012464;28;20038;-80
2021/11/21 01:58:58;;;;;;;8.15;2.13;;;;;;;5.52;79.41;101793.91;5020392;28;20415;-80
2021/11/21 02:01:25;;;;;;;14.82;2.42;;;;;;;5.48;79.44;101792.03;5010672;28;20469;-80
2021/11/21 02:03:52;;;;;;;11.68;2.75;;;;;;;5.46;79.54;101803.28;5021928;28;20042;-80
2021/11/21 02:06:19;;;;;;;11.27;2.30;;;;;;;5.47;79.50;101813.19;5014995;28;20492;-80
2021/11/21 02:08:54;;;;;;;7.57;2.03;;;;;;;5.48;79.19;101819.50;5013992;28;20184;-81
2021/11/21 02:11:22;;;;;;;5.57;1.80;;;;;;;5.47;79.10;101824.19;5016266;28;20038;-80
2021/11/21 02:13:50;;;;;;;11.32;2.38;;;;;;;5.43;79.30;101820.34;5014268;28;20065;-80
2021/11/21 02:16:19;;;;;;;14.50;2.17;;;;;;;5.40;79.41;101820.91;5015298;28;20046;-80
2021/11/21 02:18:49;;;;;;;10.80;2.47;;;;;;;5.42;79.12;101832.44;5016540;28;20071;-80
2021/11/21 02:21:18;;;;;;;11.70;2.15;;;;;;;5.41;79.15;101824.47;5017023;28;20092;-79
2021/11/21 02:23:46;;;;;;;7.55;1.77;;;;;;;5.40;79.39;101815.41;5025440;28;20040;-80
2021/11/21 02:26:16;;;;;;;8.18;1.90;;;;;;;5.40;79.16;101815.41;5021551;28;20041;-80
2021/11/21 02:28:45;;;;;;;25.42;3.05;;;;;;;5.40;79.13;101826.41;5021675;28;20072;-80
2021/11/21 02:31:12;;;;;;;6.80;2.75;;;;;;;5.38;79.16;101822.28;5018364;28;20132;-80
2021/11/21 02:33:45;;;;;;;6.55;1.58;;;;;;;5.33;78.89;101823.16;5022669;28;20041;-80
2021/11/21 02:36:12;;;;;;;16.98;2.15;;;;;;;5.26;79.04;101825.41;5011087;28;20053;-80
2021/11/21 02:38:39;;;;;;;15.27;3.03;;;;;;;5.22;79.41;101829.81;5022894;28;20262;-80
2021/11/21 02:41:08;;;;;;;9.27;1.92;;;;;;;5.19;79.28;101813.91;5018964;28;20054;-80
2021/11/21 02:43:37;;;;;;;19.45;2.80;;;;;;;5.20;79.59;101814.72;5019899;28;20089;-80
2021/11/21 02:46:05;;;;;;;10.27;1.70;;;;;;;5.13;79.31;101817.78;5016294;28;20128;-80
2021/11/21 02:48:35;;;;;;;12.68;1.90;;;;;;;5.13;79.59;101823.28;5020294;28;20137;-80
2021/11/21 02:51:05;;;;;;;7.88;1.92;;;;;;;5.14;79.45;101816.66;5020716;28;20049;-80
2021/11/21 02:53:36;;;;;;;7.38;1.50;;;;;;;5.16;79.43;101817.22;5021369;28;20153;-80
2021/11/21 02:56:06;;;;;;;8.50;2.05;;;;;;;5.17;78.92;101823.53;5012995;28;20038;-80
2021/11/21 02:58:37;;;;;;;13.85;1.77;;;;;;;5.15;79.23;101814.75;5018900;28;20099;-80
2021/11/21 03:01:15;;;;;;;11.63;2.58;;;;;;;5.12;79.39;101823.56;5018929;28;20041;-80
2021/11/21 03:03:43;;;;;;;8.98;4.03;;;;;;;5.12;79.10;101827.13;5022373;28;20168;-79
2021/11/21 03:06:11;;;;;;;8.23;1.38;;;;;;;5.11;79.35;101822.72;5016415;28;20045;-80
2021/11/21 03:08:40;;;;;;;11.95;3.55;;;;;;;5.09;79.08;101819.44;5018109;28;20080;-80
2021/11/21 03:11:26;;;;;;;11.95;2.05;;;;;;;5.03;79.24;101815.06;5017473;28;20086;-79
2021/11/21 03:13:54;;;;;;;9.10;1.40;;;;;;;5.05;79.01;101823.88;5017888;28;20045;-80
2021/11/21 03:16:20;;;;;;;11.32;3.60;;;;;;;5.05;79.17;101818.38;5015340;28;20044;-80
2021/11/21 03:18:47;;;;;;;3.63;1.30;;;;;;;5.04;78.96;101822.22;5023907;28;20045;-80
2021/11/21 03:21:15;;;;;;;9.48;1.45;;;;;;;5.04;78.93;101819.47;5021712;28;20054;-80
2021/11/21 03:23:42;;;;;;;7.40;1.52;;;;;;;5.02;79.08;101823.59;5019923;28;20046;-80
2021/11/21 03:26:09;;;;;;;7.50;2.17;;;;;;;5.02;78.78;101829.09;5015809;28;20045;-80
2021/11/21 03:28:36;;;;;;;10.13;1.17;;;;;;;4.99;79.09;101822.25;5023477;28;20472;-79
2021/11/21 03:31:06;;;;;;;12.30;2.03;;;;;;;4.98;79.04;101830.78;5019315;28;20038;-80
2021/11/21 03:33:33;;;;;;;11.30;2.15;;;;;;;4.96;78.91;101828.28;5017668;28;20053;-80
2021/11/21 03:36:00;;;;;;;10.27;2.15;;;;;;;4.98;79.05;101834.31;5021563;28;20119;-80
2021/11/21 03:38:27;;;;;;;8.25;2.55;;;;;;;4.93;79.08;101834.34;5020960;28;20492;-80
2021/11/21 03:40:54;;;;;;;7.07;1.88;;;;;;;4.88;78.85;101829.69;5014876;28;20085;-80
2021/11/21 03:43:21;;;;;;;11.90;1.17;;;;;;;4.83;79.05;101820.66;5022782;28;20065;-80
2021/11/21 03:45:48;;;;;;;6.43;1.73;;;;;;;4.85;78.83;101834.91;5016912;28;20042;-80
2021/11/21 03:48:14;;;;;;;16.42;2.22;;;;;;;4.85;79.13;101829.44;5019005;28;20049;-80
2021/11/21 03:50:42;;;;;;;13.07;2.70;;;;;;;4.85;79.15;101829.44;5016758;28;20050;-80
2021/11/21 03:53:09;;;;;;;9.88;2.33;;;;;;;4.80;79.20;101832.19;5019138;28;20041;-80
2021/11/21 03:55:36;;;;;;;9.43;2.03;;;;;;;4.73;79.39;101823.47;5006771;28;20124;-80
2021/11/21 03:58:04;;;;;;;9.48;1.63;;;;;;;4.68;79.79;101828.97;5018856;28;20053;-80
2021/11/21 04:00:31;;;;;;;10.55;2.47;;;;;;;4.65;79.89;101835.00;5013673;28;20769;-80
2021/11/21 04:02:58;;;;;;;8.45;2.33;;;;;;;4.65;79.86;101829.53;5006061;28;20401;-80
2021/11/21 04:05:26;;;;;;;3.95;1.35;;;;;;;4.61;80.12;101834.72;5012367;28;20056;-80
2021/11/21 04:07:53;;;;;;;8.13;1.75;;;;;;;4.63;79.95;101828.97;5019229;28;20540;-80
2021/11/21 04:10:20;;;;;;;5.47;1.50;;;;;;;4.62;80.11;101827.34;5020791;28;20045;-80
2021/11/21 04:12:50;;;;;;;15.93;2.03;;;;;;;4.59;79.94;101823.22;5024210;28;20049;-80
2021/11/21 04:15:17;;;;;;;7.53;1.40;;;;;;;4.61;79.85;101828.41;5009897;28;20046;-79
2021/11/21 04:17:44;;;;;;;7.55;1.90;;;;;;;4.59;79.76;101831.47;5015756;28;20186;-81
2021/11/21 04:20:12;;;;;;;8.88;1.48;;;;;;;4.60;79.72;101835.03;5010817;28;20084;-80
2021/11/21 04:22:39;;;;;;;10.05;2.72;;;;;;;4.57;79.94;101827.34;5021001;28;20034;-80
2021/11/21 04:25:06;;;;;;;11.25;2.50;;;;;;;4.59;79.82;101825.16;5005370;28;20041;-80
2021/11/21 04:27:33;;;;;;;11.57;2.78;;;;;;;4.54;79.73;101834.22;5004343;28;20812;-80
2021/11/21 04:30:01;;;;;;;15.25;2.08;;;;;;;4.52;79.94;101841.06;5020621;28;20030;-80
2021/11/21 04:32:31;;;;;;;8.57;1.95;;;;;;;4.50;79.58;101851.50;5017583;28;20064;-79
2021/11/21 04:34:58;;;;;;;8.63;2.10;;;;;;;4.48;79.94;101839.97;5015059;28;20478;-80
2021/11/21 04:37:25;;;;;;;12.90;1.88;;;;;;;4.47;80.18;101841.91;5021870;28;20037;-80
2021/11/21 04:39:52;;;;;;;6.93;2.50;;;;;;;4.50;80.03;101843.28;5014223;28;20088;-80
2021/11/21 04:42:19;;;;;;;10.45;2.40;;;;;;;4.52;79.97;101843.81;5013804;28;20548;-80
2021/11/21 04:44:46;;;;;;;4.90;2.03;;;;;;;4.51;80.02;101837.50;5018070;28;20130;-80
2021/11/21 04:47:15;;;;;;;10.80;2.70;;;;;;;4.49;79.78;101831.50;5012340;28;20042;-80
2021/11/21 04:49:42;;;;;;;14.95;1.73;;;;;;;4.47;79.70;101830.13;5020111;28;20049;-80
2021/11/21 04:52:09;;;;;;;8.43;1.98;;;;;;;4.46;79.90;101826.56;5016923;28;20045;-80
2021/11/21 04:54:37;;;;;;;9.23;1.52;;;;;;;4.43;79.90;101818.06;5017441;28;20033;-80
2021/11/21 04:57:05;;;;;;;14.02;2.65;;;;;;;4.45;79.71;101829.59;5023086;28;20064;-80
2021/11/21 04:59:32;;;;;;;6.95;1.60;;;;;;;4.46;79.74;101833.97;5003551;28;20426;-80
2021/11/21 05:02:00;;;;;;;4.55;1.50;;;;;;;4.49;79.78;101836.97;5005501;28;20074;-80
2021/11/21 05:04:28;;;;;;;7.40;2.17;;;;;;;4.51;79.64;101839.41;5016277;28;20039;-79
2021/11/21 05:06:54;;;;;;;13.15;2.55;;;;;;;4.52;79.38;101843.81;5021905;28;20041;-80
2021/11/21 05:09:22;;;;;;;14.15;2.10;;;;;;;4.48;79.43;101832.56;4998963;28;20100;-80
2021/11/21 05:11:49;;;;;;;13.40;3.13;;;;;;;4.48;79.61;101826.25;5016416;28;20049;-80
2021/11/21 05:14:18;;;;;;;12.45;1.80;;;;;;;4.49;79.72;101836.16;5018832;28;20116;-80
2021/11/21 05:16:45;;;;;;;10.25;2.05;;;;;;;4.48;79.40;101839.97;5018595;28;20072;-80
2021/11/21 05:19:12;;;;;;;9.70;1.90;;;;;;;4.47;79.40;101839.19;5009518;28;20125;-80
2021/11/21 05:21:40;;;;;;;6.53;1.30;;;;;;;4.48;79.50;101853.69;5016068;28;20041;-80
2021/11/21 05:24:07;;;;;;;13.55;2.45;;;;;;;4.48;79.73;101834.50;5014884;28;20164;-80
2021/11/21 05:26:37;;;;;;;10.73;2.45;;;;;;;4.46;79.46;101842.19;5014594;28;20042;-80
2021/11/21 05:29:04;;;;;;;10.00;1.58;;;;;;;4.45;79.53;101837.81;5014240;28;20116;-80
2021/11/21 05:31:32;;;;;;;11.30;1.42;;;;;;;4.43;79.27;101832.59;5015560;28;20069;-80
2021/11/21 05:33:59;;;;;;;10.30;1.98;;;;;;;4.43;79.80;101831.75;5016674;28;20482;-80
2021/11/21 05:36:26;;;;;;;10.35;1.70;;;;;;;4.43;79.49;101818.88;5011829;28;20046;-80
2021/11/21 05:38:53;;;;;;;13.55;2.45;;;;;;;4.41;79.35;101814.78;5019365;28;20088;-80
2021/11/21 05:41:19;;;;;;;12.05;2.50;;;;;;;4.41;79.45;101818.34;5014315;28;20073;-80
2021/11/21 05:43:47;;;;;;;6.03;2.00;;;;;;;4.39;79.54;101820.56;5016502;28;20096;-79
2021/11/21 05:46:14;;;;;;;9.23;1.38;;;;;;;4.44;79.65;101827.94;5013729;28;20069;-80
2021/11/21 05:48:41;;;;;;;9.35;2.30;;;;;;;4.44;79.60;101830.69;5015442;28;20044;-80
2021/11/21 05:51:08;;;;;;;11.60;2.53;;;;;;;4.43;79.68;101831.75;5017263;28;20442;-81
2021/11/21 05:53:35;;;;;;;5.38;1.23;;;;;;;4.45;79.65;101837.81;5019503;28;20076;-80
2021/11/21 05:56:01;;;;;;;10.15;1.55;;;;;;;4.44;79.60;101838.91;5021250;28;20033;-80
2021/11/21 05:58:28;;;;;;;13.43;2.05;;;;;;;4.43;79.51;101838.06;5011863;28;20123;-80
2021/11/21 06:00:56;;;;;;;13.45;2.67;;;;;;;4.41;79.55;101836.72;5017898;28;20100;-80
2021/11/21 06:03:23;;;;;;;13.30;1.92;;;;;;;4.43;79.63;101827.09;5016643;28;20052;-80
2021/11/21 06:05:50;;;;;;;8.38;1.67;;;;;;;4.42;79.65;101838.38;5017817;28;20044;-79
2021/11/21 06:08:17;;;;;;;10.60;2.17;;;;;;;4.41;79.50;101831.22;5018517;28;20115;-80
2021/11/21 06:10:45;;;;;;;21.48;3.28;;;;;;;4.39;79.42;101830.69;5014982;28;20124;-80
2021/11/21 06:13:12;;;;;;;18.73;2.08;;;;;;;4.39;79.52;101833.44;5021182;28;20042;-81
2021/11/21 06:15:39;;;;;;;9.63;2.00;;;;;;;4.37;79.50;101844.66;5012412;28;20042;-80
2021/11/21 06:18:06;;;;;;;15.35;1.80;;;;;;;4.34;79.53;101845.25;5011788;28;20058;-79
2021/11/21 06:20:32;;;;;;;10.30;1.27;;;;;;;4.29;79.44;101837.81;5015256;28;20548;-80
2021/11/21 06:23:00;;;;;;;11.82;1.73;;;;;;;4.28;79.40;101841.69;5020772;28;20113;-80
2021/11/21 06:25:26;;;;;;;10.38;1.80;;;;;;;4.29;79.52;101848.78;5021866;28;20540;-80
2021/11/21 06:27:53;;;;;;;10.23;2.53;;;;;;;4.29;79.36;101847.97;5017125;28;20108;-80
2021/11/21 06:30:20;;;;;;;15.70;1.80;;;;;;;4.30;79.58;101844.97;4995271;28;20065;-81
2021/11/21 06:32:47;;;;;;;9.43;2.15;;;;;;;4.29;79.42;101854.28;5003203;28;20120;-80
2021/11/21 06:35:15;;;;;;;10.38;1.75;;;;;;;4.30;79.36;101855.09;5019546;28;20489;-79
2021/11/21 06:37:45;;;;;;;4.25;1.20;;;;;;;4.28;79.76;101858.13;5012888;28;20046;-80
2021/11/21 06:40:14;;;;;;;10.15;1.80;;;;;;;4.27;79.58;101867.44;5018135;28;20115;-80
2021/11/21 06:42:42;;;;;;;10.73;1.98;;;;;;;4.26;79.42;101865.78;5017022;28;20030;-80
2021/11/21 06:45:16;;;;;;;11.65;1.95;;;;;;;4.27;79.55;101861.94;5019766;28;20038;-80
2021/11/21 06:47:43;;;;;;;8.75;1.48;;;;;;;4.31;79.40;101867.72;5025423;28;20049;-80
2021/11/21 06:50:13;;;;;;;12.38;3.03;;;;;;;4.30;79.53;101866.88;5011894;28;20091;-80
2021/11/21 06:52:42;;;;;;;7.07;1.25;;;;;;;4.29;79.61;101881.69;5024554;28;20095;-80
2021/11/21 06:55:11;;;;;;;12.40;2.17;;;;;;;4.30;79.44;101882.50;5013556;28;20034;-79
2021/11/21 06:57:38;;;;;;;5.97;1.52;;;;;;;4.28;79.65;101891.03;5015804;28;20442;-79
2021/11/21 07:00:11;;;;;;;6.60;1.65;;;;;;;4.28;79.34;101891.03;5011776;28;20041;-79
2021/11/21 07:02:41;;;;;;;12.75;3.65;;;;;;;4.27;79.39;101888.53;5029672;28;20048;-79
2021/11/21 07:05:08;;;;;;;6.50;1.70;;;;;;;4.25;79.37;101880.59;5014151;28;20068;-80
2021/11/21 07:07:36;;;;;;;8.57;1.40;;;;;;;4.25;79.43;101880.59;5017867;28;20088;-80
2021/11/21 07:10:04;;;;;;;11.75;1.38;;;;;;;4.25;79.45;101885.25;5021147;28;20061;-80
2021/11/21 07:12:32;;;;;;;11.38;1.58;;;;;;;4.25;79.51;101891.56;5014274;28;20111;-80
2021/11/21 07:15:12;;;;;;;10.07;1.65;;;;;;;4.21;79.75;101897.84;5023187;28;20042;-79
2021/11/21 07:17:43;;;;;;;9.07;2.47;;;;;;;4.20;79.82;101905.28;5020059;28;20465;-80
2021/11/21 07:20:18;;;;;;;8.27;2.25;;;;;;;4.18;79.65;101895.69;5014302;28;20463;-80
2021/11/21 07:22:47;;;;;;;9.52;1.40;;;;;;;4.12;79.70;101908.56;5016097;28;20050;-80
2021/11/21 07:25:16;;;;;;;8.93;1.67;;;;;;;4.09;79.60;101898.16;5009953;28;20106;-80
2021/11/21 07:27:43;;;;;;;13.63;1.63;;;;;;;4.09;79.83;101902.81;5018704;28;20071;-80
2021/11/21 07:30:16;;;;;;;10.57;1.27;;;;;;;4.09;79.93;101894.59;5020659;28;20084;-79
2021/11/21 07:32:44;;;;;;;8.10;1.77;;;;;;;4.06;80.05;101904.16;5011368;28;20060;-80
2021/11/21 07:35:17;;;;;;;9.40;1.33;;;;;;;4.05;80.15;101910.72;5015708;28;20091;-79
2021/11/21 07:37:45;;;;;;;9.82;2.10;;;;;;;4.06;80.14;101908.81;5018630;28;20044;-80
2021/11/21 07:40:14;;;;;;;10.50;1.08;;;;;;;4.06;79.77;101920.63;5012237;28;20062;-79
2021/11/21 07:42:44;;;;;;;12.37;2.60;;;;;;;4.02;79.91;101908.56;5012671;28;20064;-79
2021/11/21 07:45:13;;;;;;;14.30;1.60;;;;;;;4.02;80.18;101919.53;5017159;28;20531;-80
2021/11/21 07:47:40;;;;;;;5.22;1.17;;;;;;;4.01;80.23;101920.63;5023934;28;20073;-80
2021/11/21 07:50:08;;;;;;;11.27;2.65;;;;;;;3.98;80.51;101917.59;5016966;28;20038;-80
2021/11/21 07:52:35;;;;;;;13.02;1.50;;;;;;;3.98;79.98;101912.94;5018148;28;20065;-80
2021/11/21 07:55:03;;;;;;;8.18;1.33;;;;;;;3.98;80.20;101923.91;5016900;28;20050;-80
2021/11/21 07:57:30;;;;;;;10.65;1.27;;;;;;;4.00;80.33;101923.59;5022948;28;20038;-80
2021/11/21 07:59:56;;;;;;;9.23;1.83;;;;;;;3.99;80.47;101922.81;5017644;28;20080;-80
2021/11/21 08:02:23;;;;;;;10.38;1.85;;;;;;;3.97;80.02;101933.19;5015111;28;20058;-80
2021/11/21 08:04:50;;;;;;;9.63;1.90;;;;;;;3.92;80.74;101946.88;5014294;28;20083;-81
2021/11/21 08:07:17;;;;;;;11.35;1.33;;;;;;;3.91;80.54;101950.75;5014463;28;20037;-80
2021/11/21 08:09:44;;;;;;;12.88;2.13;;;;;;;3.93;80.56;101948.53;5014089;28;20152;-80
2021/11/21 08:12:11;;;;;;;7.53;2.00;;;;;;;3.93;80.16;101943.06;5018458;28;20041;-80
2021/11/21 08:14:38;;;;;;;6.97;1.30;;;;;;;3.93;80.62;101951.28;5013982;28;20041;-80
2021/11/21 08:17:05;;;;;;;6.97;1.25;;;;;;;3.93;80.67;101948.53;5011552;28;20042;-80
2021/11/21 08:19:32;;;;;;;3.45;1.48;;;;;;;3.90;80.50;101954.56;5023391;28;20041;-80
2021/11/21 08:21:59;;;;;;;13.57;1.48;;;;;;;3.91;80.57;101964.44;5002957;28;20377;-81
2021/11/21 08:24:27;;;;;;;6.88;1.70;;;;;;;3.92;80.86;101974.28;5016343;28;20049;-80
2021/11/21 08:26:54;;;;;;;9.07;1.92;;;;;;;3.92;81.00;101977.03;5013227;28;20037;-80
2021/11/21 08:29:21;;;;;;;5.20;1.23;;;;;;;3.95;80.80;101978.41;5014070;28;20038;-80
2021/11/21 08:31:57;;;;;;;6.15;1.50;;;;;;;3.96;80.82;101986.38;5011855;28;20120;-80
2021/11/21 08:34:26;;;;;;;8.32;1.88;;;;;;;3.99;80.94;101982.25;5015515;28;20054;-80
2021/11/21 08:36:52;;;;;;;5.57;1.15;;;;;;;4.02;81.01;101984.47;5015978;28;20122;-80
2021/11/21 08:39:23;;;;;;;8.43;1.88;;;;;;;4.03;81.04;101991.56;5016646;28;20477;-80
2021/11/21 08:41:52;;;;;;;10.48;0.93;;;;;;;4.03;81.01;101989.66;5013880;28;20046;-81
2021/11/21 08:44:20;;;;;;;8.23;2.30;;;;;;;4.05;80.72;101987.47;5009836;28;20087;-81
2021/11/21 08:46:47;;;;;;;5.85;2.47;;;;;;;4.06;81.13;102000.09;5016099;28;20095;-79
2021/11/21 08:49:14;;;;;;;9.07;0.90;;;;;;;4.08;81.14;101989.66;5017412;28;20045;-80
2021/11/21 08:51:43;;;;;;;7.05;2.03;;;;;;;4.12;81.27;102000.91;5000578;28;20053;-80
2021/11/21 08:54:12;;;;;;;6.22;1.65;;;;;;;4.12;81.42;101993.53;5019369;28;20069;-80
2021/11/21 08:56:39;;;;;;;9.73;1.40;;;;;;;4.16;81.45;102005.56;5021314;28;20584;-81
2021/11/21 08:59:06;;;;;;;13.48;1.23;;;;;;;4.19;81.32;102005.03;5014386;28;20061;-81
2021/11/21 09:01:33;;;;;;;5.18;1.00;;;;;;;4.23;81.22;102008.91;5009741;28;20038;-81
2021/11/21 09:04:01;;;;;;;4.18;0.88;;;;;;;4.26;81.42;102013.81;5000318;28;20042;-80
2021/11/21 09:06:29;;;;;;;8.10;1.42;;;;;;;4.29;81.52;102010.53;5017850;28;20046;-81
2021/11/21 09:08:56;;;;;;;4.45;0.93;;;;;;;4.36;81.38;102003.97;5025080;28;20122;-81
2021/11/21 09:11:23;;;;;;;3.78;1.02;;;;;;;4.38;81.60;102015.47;5019086;28;20065;-80
2021/11/21 09:13:50;;;;;;;2.80;1.10;;;;;;;4.41;81.54;102010.28;5016466;28;20041;-80
2021/11/21 09:16:18;;;;;;;2.33;0.70;;;;;;;4.47;81.37;102008.34;5026718;28;20083;-79
2021/11/21 09:18:45;;;;;;;2.70;0.88;;;;;;;4.52;81.41;102020.16;5023104;28;20049;-80
2021/11/21 09:21:12;;;;;;;6.32;0.95;;;;;;;4.53;81.43;102018.22;5021156;28;20295;-80
2021/11/21 09:23:39;;;;;;;10.70;1.27;;;;;;;4.56;81.31;102034.13;5021495;28;20041;-80
2021/11/21 09:26:07;;;;;;;7.25;1.10;;;;;;;4.60;81.32;102035.22;5021908;28;20096;-80
2021/11/21 09:28:34;;;;;;;7.60;0.98;;;;;;;4.63;81.25;102040.19;5021822;28;20049;-80
2021/11/21 09:31:01;;;;;;;5.57;1.00;;;;;;;4.65;81.54;102051.69;5018083;28;20493;-80
2021/11/21 09:33:29;;;;;;;6.97;1.08;;;;;;;4.69;81.78;102055.50;5014967;28;20046;-81
2021/11/21 09:35:58;;;;;;;3.17;0.88;;;;;;;4.73;81.40;102051.97;5006707;28;20140;-80
2021/11/21 09:38:26;;;;;;;8.05;1.33;;;;;;;4.79;81.82;102055.53;5014030;28;20104;-80
2021/11/21 09:40:54;;;;;;;5.47;0.70;;;;;;;4.82;81.70;102050.31;5019597;28;20079;-81
2021/11/21 09:43:22;;;;;;;11.77;1.30;;;;;;;4.88;81.43;102051.13;5018266;28;20066;-79
2021/11/21 09:45:49;;;;;;;4.18;0.98;;;;;;;4.92;81.64;102049.50;5016942;28;20033;-81
2021/11/21 09:48:17;;;;;;;7.40;1.85;;;;;;;4.96;81.53;102056.06;5017741;28;20038;-80
2021/11/21 09:50:44;;;;;;;4.88;0.88;;;;;;;5.00;81.92;102062.66;5003519;28;20400;-80
2021/11/21 09:53:13;;;;;;;5.30;0.80;;;;;;;5.05;81.83;102070.06;5018075;28;20091;-81
2021/11/21 09:55:40;;;;;;;4.63;0.70;;;;;;;5.09;81.56;102066.47;5005739;28;20587;-80
2021/11/21 09:58:07;;;;;;;6.15;0.80;;;;;;;5.13;81.68;102069.50;5024533;28;20091;-80
2021/11/21 10:00:35;;;;;;;6.97;1.45;;;;;;;5.17;81.38;102079.66;5015756;28;20034;-80
2021/11/21 10:03:06;;;;;;;6.15;1.42;;;;;;;5.19;81.33;102071.94;5026125;28;20057;-80
2021/11/21 10:05:46;;;;;;;7.13;1.27;;;;;;;5.22;81.06;102065.91;5024812;28;20040;-80
2021/11/21 10:08:20;;;;;;;9.27;1.73;;;;;;;5.25;81.39;102070.84;5025390;28;20077;-80
2021/11/21 10:11:10;;;;;;;4.63;0.88;;;;;;;5.30;81.19;102073.59;5027614;28;20069;-80
2021/11/21 10:13:44;;;;;;;3.95;1.38;;;;;;;5.35;81.02;102076.31;5005998;28;20496;-80
2021/11/21 10:16:20;;;;;;;8.10;2.25;;;;;;;5.42;81.20;102081.53;5024190;28;20129;-81
2021/11/21 10:18:58;;;;;;;16.30;4.45;;;;;;;5.49;80.89;102082.06;5024492;28;20045;-80
2021/11/21 10:21:28;;;;;;;15.23;6.32;;;;;;;5.56;80.60;102092.75;5013008;28;20037;-79
2021/11/21 10:24:21;;;;;;;9.85;1.73;;;;;;;5.62;80.60;102102.63;5009530;28;20042;-89
2021/11/21 10:27:19;;;;;;;8.77;0.85;;;;;;;5.69;79.78;102097.66;5027296;28;20057;-80
2021/11/21 10:29:48;;;;;;;6.13;1.00;;;;;;;5.74;80.21;102101.22;5002098;28;20757;-80
2021/11/21 10:32:34;;;;;;;5.28;1.27;;;;;;;5.77;80.27;102117.13;5014294;28;20061;-80
2021/11/21 10:35:05;;;;;;;6.88;0.98;;;;;;;5.82;80.28;102108.06;5021123;28;20069;-80
2021/11/21 10:37:37;;;;;;;3.58;0.75;;;;;;;5.84;80.01;102116.84;5017235;28;20045;-82
2021/11/21 10:40:19;;;;;;;4.38;0.73;;;;;;;5.88;79.56;102112.44;5022150;28;20046;-80
2021/11/21 10:42:48;;;;;;;7.00;0.88;;;;;;;5.92;79.72;102113.56;5017460;28;20038;-80
2021/11/21 10:45:22;;;;;;;4.55;1.25;;;;;;;5.96;79.73;102117.38;5023083;28;20097;-79
2021/11/21 10:47:55;;;;;;;4.45;1.00;;;;;;;5.98;79.61;102117.94;5021933;28;20045;-79
2021/11/21 10:50:37;;;;;;;8.60;1.05;;;;;;;6.01;79.34;102117.38;5027134;28;20096;-79
2021/11/21 10:53:10;;;;;;;5.38;1.33;;;;;;;6.04;79.32;102116.78;5008197;28;20657;-80
2021/11/21 10:55:39;;;;;;;5.53;1.00;;;;;;;6.06;79.12;102117.34;5015214;28;20056;-79
2021/11/21 10:58:15;;;;;;;4.30;1.00;;;;;;;6.09;79.24;102114.84;5017930;28;20046;-79
2021/11/21 11:00:54;;;;;;;3.80;0.88;;;;;;;6.12;79.42;102124.44;5010758;28;20401;-80
2021/11/21 11:03:22;;;;;;;2.53;0.65;;;;;;;6.16;78.79;102116.47;5018029;28;20088;-79
2021/11/21 11:05:49;;;;;;;2.65;1.50;;;;;;;6.19;78.29;102119.47;5018346;28;20073;-80
2021/11/21 11:08:26;;;;;;;3.90;0.70;;;;;;;6.22;77.72;102121.69;5020211;28;20493;-80
2021/11/21 11:10:54;;;;;;;9.25;1.48;;;;;;;6.27;77.37;102107.06;5025604;28;20029;-79
2021/11/21 11:13:23;;;;;;;6.25;1.00;;;;;;;6.30;77.47;102110.06;5018541;28;20108;-79
2021/11/21 11:15:50;;;;;;;7.13;1.13;;;;;;;6.34;77.25;102107.56;5018954;28;20139;-79
2021/11/21 11:18:17;;;;;;;2.08;1.00;;;;;;;6.37;76.90;102105.09;5021588;28;20470;-80
2021/11/21 11:20:48;;;;;;;5.82;0.82;;;;;;;6.41;76.83;102103.41;5018713;28;20038;-79
2021/11/21 11:23:17;;;;;;;4.13;0.82;;;;;;;6.46;76.46;102094.31;5021626;28;20033;-79
2021/11/21 11:25:45;;;;;;;6.47;0.90;;;;;;;6.49;76.39;102102.78;5021163;28;20134;-80
2021/11/21 11:28:19;;;;;;;5.40;0.80;;;;;;;6.50;76.07;102104.44;5008668;28;20076;-79
2021/11/21 11:30:47;;;;;;;5.97;0.80;;;;;;;6.54;75.60;102101.97;5008515;28;20096;-79
2021/11/21 11:33:18;;;;;;;4.63;1.02;;;;;;;6.58;75.51;102106.59;4992557;28;20037;-79
2021/11/21 11:35:51;;;;;;;5.97;1.03;;;;;;;6.61;74.99;102097.78;5007536;28;20120;-79